NPV3605 LIPE-EGNX
Flight info
| Callsign | NPV3605 |
|---|---|
| Flight time | N/A |
| Altitude | 34000 |
| Route | LUPOS DCT OSBUL DCT ABESI DCT UTAVO DCT HOC DCT LUL DCT RLP DCT ROTSI DCT KOTUN DCT NINAL DCT ABNUR DCT DIMAL DCT ALESO T420 HEMEL |
| Aircraft | B77L/H-SDE1E2E3FGHIJ2J3J4J5M1RWXY/LB1D1 |
Departure
| Time | 2026-05-04 15:46 |
|---|---|
| Airport | Bologna Guglielmo Marconi Airport (LIPE) |
Arrival
| Time | N/A |
|---|---|
| Airport | East Midlands Airport (EGNX) |
| Time | Latitude | Longitude | Altitude | Speed | Heading |
|---|---|---|---|---|---|
| 2026-05-04 14:44 | 44.53390 | 11.28295 | 135 ft | 0 kts | 207° |
| 2026-05-04 15:29 | 44.53401 | 11.28303 | 131 ft | 4 kts | 206° |
| 2026-05-04 15:30 | 44.53491 | 11.28329 | 135 ft | 2 kts | 116° |
| 2026-05-04 15:30 | 44.53481 | 11.28355 | 135 ft | 0 kts | 117° |
| 2026-05-04 15:37 | 44.53479 | 11.28361 | 127 ft | 3 kts | 117° |
| 2026-05-04 15:37 | 44.53466 | 11.28411 | 135 ft | 6 kts | 91° |
| 2026-05-04 15:38 | 44.53496 | 11.28432 | 125 ft | 6 kts | 328° |
| 2026-05-04 15:38 | 44.53521 | 11.28380 | 135 ft | 6 kts | 300° |
| 2026-05-04 15:38 | 44.53542 | 11.28325 | 129 ft | 6 kts | 297° |
| 2026-05-04 15:38 | 44.53561 | 11.28270 | 130 ft | 6 kts | 296° |
| 2026-05-04 15:39 | 44.53581 | 11.28214 | 130 ft | 6 kts | 296° |
| 2026-05-04 15:39 | 44.53614 | 11.28123 | 126 ft | 18 kts | 296° |
| 2026-05-04 15:39 | 44.53737 | 11.27778 | 131 ft | 20 kts | 299° |
| 2026-05-04 15:40 | 44.53800 | 11.27605 | 129 ft | 20 kts | 296° |
| 2026-05-04 15:40 | 44.53853 | 11.27458 | 131 ft | 2 kts | 297° |
| 2026-05-04 15:40 | 44.53855 | 11.27452 | 135 ft | 1 kts | 297° |
| 2026-05-04 15:40 | 44.53857 | 11.27446 | 135 ft | 1 kts | 297° |
| 2026-05-04 15:41 | 44.53859 | 11.27440 | 135 ft | 1 kts | 297° |
| 2026-05-04 15:41 | 44.53861 | 11.27434 | 135 ft | 1 kts | 297° |
| 2026-05-04 15:41 | 44.53899 | 11.27347 | 129 ft | 20 kts | 314° |
| 2026-05-04 15:41 | 44.54018 | 11.27232 | 129 ft | 20 kts | 326° |
| 2026-05-04 15:42 | 44.54089 | 11.27238 | 128 ft | 7 kts | 48° |
| 2026-05-04 15:42 | 44.54104 | 11.27302 | 134 ft | 8 kts | 107° |
| 2026-05-04 15:42 | 44.54089 | 11.27351 | 132 ft | 0 kts | 117° |
| 2026-05-04 15:45 | 44.54058 | 11.27436 | 134 ft | 25 kts | 116° |
| 2026-05-04 15:45 | 44.53970 | 11.27683 | 127 ft | 66 kts | 116° |
| 2026-05-04 15:45 | 44.53647 | 11.28574 | 131 ft | 137 kts | 116° |
| 2026-05-04 15:46 | 44.53128 | 11.30008 | 176 ft | 185 kts | 117° |
| 2026-05-04 15:46 | 44.52583 | 11.31608 | 763 ft | 182 kts | 111° |
| 2026-05-04 15:46 | 44.52532 | 11.33333 | 1275 ft | 181 kts | 63° |
| 2026-05-04 15:46 | 44.53451 | 11.34561 | 1515 ft | 195 kts | 14° |
| 2026-05-04 15:47 | 44.54783 | 11.34934 | 2003 ft | 196 kts | 16° |
| 2026-05-04 15:47 | 44.56059 | 11.35641 | 2459 ft | 203 kts | 22° |
| 2026-05-04 15:47 | 44.57408 | 11.35999 | 2918 ft | 201 kts | 343° |
| 2026-05-04 15:47 | 44.58523 | 11.34991 | 3394 ft | 196 kts | 304° |
| 2026-05-04 15:48 | 44.58976 | 11.33118 | 3585 ft | 215 kts | 278° |
| 2026-05-04 15:48 | 44.59133 | 11.30942 | 3714 ft | 236 kts | 265° |
| 2026-05-04 15:48 | 44.58394 | 11.26089 | 4480 ft | 268 kts | 255° |
| 2026-05-04 15:49 | 44.57924 | 11.23516 | 5160 ft | 276 kts | 255° |
| 2026-05-04 15:49 | 44.57464 | 11.20911 | 6047 ft | 274 kts | 255° |
| 2026-05-04 15:49 | 44.57017 | 11.18314 | 6904 ft | 274 kts | 255° |
| 2026-05-04 15:49 | 44.56577 | 11.15702 | 7612 ft | 278 kts | 255° |
| 2026-05-04 15:50 | 44.56140 | 11.13042 | 8348 ft | 281 kts | 254° |
| 2026-05-04 15:50 | 44.55704 | 11.10369 | 9151 ft | 282 kts | 254° |
| 2026-05-04 15:50 | 44.55272 | 11.07680 | 9922 ft | 284 kts | 253° |
| 2026-05-04 15:50 | 44.54834 | 11.04956 | 10502 ft | 292 kts | 254° |
| 2026-05-04 15:51 | 44.54369 | 11.02069 | 10672 ft | 315 kts | 254° |
| 2026-05-04 15:51 | 44.53870 | 10.98965 | 10882 ft | 338 kts | 255° |
| 2026-05-04 15:51 | 44.53336 | 10.95645 | 11089 ft | 359 kts | 255° |
| 2026-05-04 15:51 | 44.52781 | 10.92180 | 11609 ft | 369 kts | 255° |
| 2026-05-04 15:52 | 44.52221 | 10.88694 | 12286 ft | 374 kts | 255° |
| 2026-05-04 15:52 | 44.51740 | 10.85097 | 13057 ft | 377 kts | 261° |
| 2026-05-04 15:52 | 44.51546 | 10.81371 | 13894 ft | 379 kts | 265° |
| 2026-05-04 15:52 | 44.51404 | 10.77722 | 14527 ft | 383 kts | 265° |
| 2026-05-04 15:53 | 44.51241 | 10.73980 | 15194 ft | 386 kts | 265° |
| 2026-05-04 15:53 | 44.51070 | 10.70209 | 15863 ft | 389 kts | 265° |
| 2026-05-04 15:53 | 44.50894 | 10.66415 | 16550 ft | 392 kts | 265° |
| 2026-05-04 15:53 | 44.50866 | 10.62603 | 17067 ft | 395 kts | 277° |
| 2026-05-04 15:54 | 44.51726 | 10.58914 | 17577 ft | 404 kts | 297° |
| 2026-05-04 15:54 | 44.53380 | 10.55703 | 18230 ft | 411 kts | 311° |
| 2026-05-04 15:54 | 44.55617 | 10.53188 | 18749 ft | 415 kts | 324° |
| 2026-05-04 15:54 | 44.58076 | 10.51010 | 19156 ft | 422 kts | 326° |
| 2026-05-04 15:55 | 44.60588 | 10.48821 | 19684 ft | 426 kts | 326° |
| 2026-05-04 15:55 | 44.63104 | 10.46614 | 20296 ft | 428 kts | 325° |
| 2026-05-04 15:55 | 44.65628 | 10.44371 | 20906 ft | 431 kts | 325° |
| 2026-05-04 15:55 | 44.68166 | 10.42092 | 21444 ft | 434 kts | 325° |
| 2026-05-04 15:56 | 44.70714 | 10.39781 | 21976 ft | 438 kts | 324° |
| 2026-05-04 15:56 | 44.73287 | 10.37437 | 22466 ft | 443 kts | 325° |
| 2026-05-04 15:56 | 44.75885 | 10.35066 | 22985 ft | 448 kts | 325° |
| 2026-05-04 15:56 | 44.78510 | 10.32672 | 23535 ft | 451 kts | 325° |
| 2026-05-04 15:57 | 44.81155 | 10.30257 | 23968 ft | 455 kts | 325° |
| 2026-05-04 15:57 | 44.83814 | 10.27830 | 24428 ft | 458 kts | 325° |
| 2026-05-04 15:57 | 44.86498 | 10.25389 | 24907 ft | 460 kts | 324° |
| 2026-05-04 15:57 | 44.89189 | 10.22942 | 25415 ft | 461 kts | 324° |
| 2026-05-04 15:58 | 44.91890 | 10.20487 | 25894 ft | 463 kts | 324° |
| 2026-05-04 15:58 | 44.94606 | 10.18011 | 26367 ft | 466 kts | 324° |
| 2026-05-04 15:58 | 44.97335 | 10.15519 | 26853 ft | 468 kts | 324° |
| 2026-05-04 15:58 | 45.00079 | 10.13010 | 27324 ft | 471 kts | 324° |
| 2026-05-04 15:59 | 45.02797 | 10.10522 | 27781 ft | 474 kts | 324° |
| 2026-05-04 15:59 | 45.05568 | 10.07985 | 28271 ft | 476 kts | 324° |
| 2026-05-04 15:59 | 45.08351 | 10.05438 | 28757 ft | 478 kts | 324° |
| 2026-05-04 15:59 | 45.11152 | 10.02867 | 29181 ft | 480 kts | 324° |
| 2026-05-04 16:00 | 45.13956 | 10.00287 | 29591 ft | 482 kts | 323° |
| 2026-05-04 16:00 | 45.16779 | 9.97688 | 29979 ft | 485 kts | 324° |
| 2026-05-04 16:00 | 45.19606 | 9.95079 | 30439 ft | 484 kts | 323° |
| 2026-05-04 16:00 | 45.22421 | 9.92480 | 31003 ft | 481 kts | 323° |
| 2026-05-04 16:01 | 45.25216 | 9.89898 | 31564 ft | 478 kts | 323° |
| 2026-05-04 16:01 | 45.27989 | 9.87335 | 32120 ft | 474 kts | 323° |
| 2026-05-04 16:01 | 45.30748 | 9.84783 | 32645 ft | 472 kts | 323° |
| 2026-05-04 16:01 | 45.33496 | 9.82235 | 33135 ft | 471 kts | 323° |
| 2026-05-04 16:02 | 45.36231 | 9.79694 | 33590 ft | 470 kts | 323° |
| 2026-05-04 16:02 | 45.38970 | 9.77149 | 33944 ft | 470 kts | 323° |
| 2026-05-04 16:02 | 45.44433 | 9.72062 | 34723 ft | 468 kts | 322° |
| 2026-05-04 16:03 | 45.47156 | 9.69520 | 35056 ft | 468 kts | 322° |
| 2026-05-04 16:03 | 45.49876 | 9.66983 | 35438 ft | 467 kts | 322° |
| 2026-05-04 16:03 | 45.52588 | 9.64450 | 35821 ft | 465 kts | 322° |
| 2026-05-04 16:03 | 45.55291 | 9.61922 | 36117 ft | 465 kts | 322° |
| 2026-05-04 16:04 | 45.58010 | 9.59373 | 36157 ft | 469 kts | 323° |
| 2026-05-04 16:04 | 45.66177 | 9.51701 | 36170 ft | 465 kts | 322° |
| 2026-05-04 16:05 | 45.71527 | 9.46658 | 36072 ft | 462 kts | 322° |
| 2026-05-04 16:06 | 45.79574 | 9.39057 | 36074 ft | 462 kts | 322° |
| 2026-05-04 16:07 | 45.90422 | 9.28760 | 36080 ft | 471 kts | 322° |
| 2026-05-04 16:08 | 46.01354 | 9.18342 | 36090 ft | 472 kts | 322° |
| 2026-05-04 16:09 | 46.15231 | 9.05688 | 36067 ft | 473 kts | 329° |
| 2026-05-04 16:10 | 46.25904 | 8.94927 | 36080 ft | 469 kts | 319° |
| 2026-05-04 16:11 | 46.36445 | 8.83823 | 36107 ft | 471 kts | 320° |
| 2026-05-04 16:12 | 46.52529 | 8.67097 | 36063 ft | 477 kts | 320° |
| 2026-05-04 16:13 | 46.63248 | 8.55880 | 36058 ft | 473 kts | 320° |
| 2026-05-04 16:14 | 46.68073 | 8.49541 | 36055 ft | 465 kts | 308° |
| 2026-05-04 16:14 | 46.71892 | 8.42015 | 36044 ft | 460 kts | 300° |
| 2026-05-04 16:16 | 46.80919 | 8.22717 | 36036 ft | 460 kts | 301° |
| 2026-05-04 16:17 | 46.89985 | 8.03421 | 36022 ft | 462 kts | 300° |
| 2026-05-04 16:18 | 46.97215 | 7.87917 | 36004 ft | 463 kts | 300° |
| 2026-05-04 16:19 | 47.06276 | 7.68387 | 36017 ft | 465 kts | 300° |
| 2026-05-04 16:20 | 47.15334 | 7.48703 | 36045 ft | 466 kts | 300° |
| 2026-05-04 16:22 | 47.24391 | 7.28890 | 36046 ft | 467 kts | 299° |
| 2026-05-04 16:23 | 47.35198 | 7.05064 | 36045 ft | 465 kts | 299° |